Latest Weather Observations for Degrussa Aerodrome

IDW60801

Issued at 9:43 pm WST Sunday 17 February 2019 (issued every 10 minutes, with the page automatically refreshed every 10 minutes)

About weather observations | Map of weather stations | Latest weather observations for WA | Other Formats
Station Details ID: 507500 Name: DEGRUSSA AERODROME Lat: -25.56 Lon: 119.29 Height: 550.91 m
Data from the previous 72 hours. | See also: Recent months for locations in Western Australia
Date/Time
WST
Temp
°C
App
Temp
°C
Dew
Point
°C
Rel
Hum
%
Delta-T
°C
Wind Press
QNH
hPa
Press
MSL
hPa
Rain since
9am
mm
Dir  Spd
km/h
Gust
km/h
Spd
kts
Gust
kts
17/09:30pm 33.5 29.3 -1.0 11 17.0 SSW 11 11 6 6 1010.5 1006.0 0.0
17/09:00pm 34.3 30.2 -0.4 11 17.4 SW 11 11 6 6 1010.2 1005.7 0.0
17/08:30pm 35.2 31.4 -1.0 10 18.1 SW 9 9 5 5 1009.9 1005.4 0.0
17/08:00pm 36.8 32.6 -1.2 9 19.1 SW 11 13 6 7 1009.6 1005.1 0.0
17/07:30pm 38.2 33.3 -0.2 9 19.8 SW 15 19 8 10 1009.2 1004.8 0.0
17/07:00pm 39.1 33.2 -1.1 8 20.5 SW 20 26 11 14 1008.8 1004.3 0.0
17/06:30pm 39.9 33.0 -2.4 7 21.3 WSW 24 33 13 18 1008.4 1003.9 0.0
17/06:00pm 40.6 33.4 -1.9 7 21.7 W 26 35 14 19 1008.1 1003.6 0.0
17/05:30pm 41.4 34.0 -3.4 6 22.4 W 26 39 14 21 1008.0 1003.5 0.0
17/05:00pm 41.6 33.1 -3.2 6 22.5 W 32 41 17 22 1008.0 1003.5 0.0
17/04:30pm 42.1 34.8 -2.9 6 22.7 WNW 26 43 14 23 1007.8 1003.3 0.0
17/04:00pm 42.5 35.2 -2.6 6 23.0 WNW 26 43 14 23 1008.0 1003.5 0.0
17/03:30pm 42.9 36.3 -0.2 7 22.8 W 24 39 13 21 1008.1 1003.6 0.0
17/03:00pm 42.8 37.0 -0.3 7 22.8 W 20 35 11 19 1008.5 1004.0 0.0
17/02:30pm 42.4 37.1 -0.6 7 22.5 W 17 32 9 17 1008.7 1004.2 0.0
17/02:00pm 41.4 35.6 -1.3 7 22.0 NW 19 37 10 20 1009.2 1004.8 0.0
17/01:30pm 42.6 38.8 -0.4 7 22.6 NW 9 35 5 19 1009.7 1005.2 0.0
17/01:00pm 41.3 36.5 0.5 8 21.6 NW 15 32 8 17 1010.1 1005.6 0.0
17/12:30pm 40.8 36.4 0.1 8 21.3 WNW 13 26 7 14 1010.6 1006.2 0.0
17/12:00pm 39.4 36.2 0.7 9 20.3 NW 7 15 4 8 1010.9 1006.5 0.0
17/11:30am 39.6 36.6 0.9 9 20.4 SSW 6 15 3 8 1011.6 1007.1 0.0
17/11:00am 38.5 35.4 1.5 10 19.6 SSW 7 15 4 8 1012.0 1007.5 0.0
17/10:30am 37.9 35.0 2.4 11 19.0 ESE 7 17 4 9 1012.5 1008.1 0.0
17/10:00am 37.1 33.5 3.0 12 18.3 ESE 11 17 6 9 1012.9 1008.5 0.0
17/09:30am 35.9 32.0 3.2 13 17.5 E 13 19 7 10 1013.3 1008.8 0.0
17/09:00am 35.1 31.1 2.6 13 17.2 ESE 13 19 7 10 1013.4 1008.9 0.0
17/08:30am 33.3 29.4 3.2 15 15.9 ESE 13 19 7 10 1013.3 1008.8 0.0
17/08:00am 31.7 27.7 2.8 16 15.0 SE 13 19 7 10 1013.3 1008.8 0.0
17/07:30am 30.3 27.0 2.5 17 14.2 SE 9 20 5 11 1013.0 1008.6 0.0
17/07:00am 27.2 24.1 1.6 19 12.7 S 7 9 4 5 1013.0 1008.6 0.0
17/06:30am 24.4 21.8 0.7 21 11.3 S 4 7 2 4 1012.7 1008.3 0.0
17/06:00am 23.8 20.6 0.8 22 11.0 S 7 11 4 6 1012.5 1008.1 0.0
17/05:30am 24.6 20.6 0.8 21 11.4 S 11 13 6 7 1012.4 1008.0 0.0
17/05:00am 24.9 20.9 0.4 20 11.7 S 11 13 6 7 1012.2 1007.7 0.0
17/04:30am 25.2 21.6 0.7 20 11.8 S 9 11 5 6 1012.0 1007.5 0.0
17/04:00am 26.2 22.1 0.0 18 12.5 S 11 15 6 8 1011.9 1007.4 0.0
17/03:30am 27.3 23.2 0.1 17 13.1 S 11 13 6 7 1011.8 1007.3 0.0
17/03:00am 27.4 23.5 1.0 18 13.0 S 11 13 6 7 1011.9 1007.4 0.0
17/02:30am 27.0 23.4 0.7 18 12.8 SSE 9 9 5 5 1011.9 1007.4 0.0
17/02:00am 28.1 24.5 0.8 17 13.4 S 9 9 5 5 1011.8 1007.3 0.0
17/01:30am 28.8 25.2 0.5 16 13.9 S 9 9 5 5 1011.8 1007.3 0.0
17/01:00am 30.0 26.4 0.6 15 14.6 SSW 9 11 5 6 1012.1 1007.6 0.0
17/12:30am 31.2 27.0 1.5 15 15.1 SSW 13 15 7 8 1012.2 1007.7 0.0
17/12:00am 32.2 27.6 1.3 14 15.7 SSW 15 19 8 10 1012.7 1008.3 0.0
 
Date/Time
WST
Temp
°C
App
Temp
°C
Dew
Point
°C
Rel
Hum
%
Delta-T
°C
Wind Press
QNH
hPa
Press
MSL
hPa
Rain since
9am
mm
Dir  Spd
km/h
Gust
km/h
Spd
kts
Gust
kts
16/11:30pm 32.9 27.6 1.9 14 16.0 SSW 19 24 10 13 1012.9 1008.5 0.0
16/11:00pm 33.3 28.4 2.2 14 16.2 SSW 17 20 9 11 1013.1 1008.7 0.0
16/10:30pm 33.9 28.7 2.7 14 16.4 SSW 19 26 10 14 1013.3 1008.8 0.0
16/10:00pm 34.4 30.1 3.1 14 16.6 SSW 15 20 8 11 1013.4 1008.9 0.0
16/09:30pm 35.1 31.1 2.6 13 17.2 SSW 13 19 7 10 1013.5 1009.0 0.0
16/09:00pm 36.0 31.3 3.3 13 17.5 SSW 17 24 9 13 1013.6 1009.1 0.0
16/08:30pm 36.6 32.2 2.6 12 18.1 SSW 15 19 8 10 1013.4 1008.9 0.0
16/08:00pm 37.3 32.6 3.1 12 18.4 SSW 17 24 9 13 1013.1 1008.7 0.0
16/07:30pm 38.0 32.8 2.5 11 19.0 SSW 19 26 10 14 1012.8 1008.4 0.0
16/07:00pm 38.7 33.4 3.0 11 19.3 SW 20 26 11 14 1012.4 1008.0 0.0
16/06:30pm 39.5 33.3 2.2 10 20.0 SSW 24 33 13 18 1011.9 1007.4 0.0
16/06:00pm 40.4 34.3 2.9 10 20.5 SSW 24 35 13 19 1011.6 1007.1 0.0
16/05:30pm 41.4 35.1 3.7 10 20.9 SW 26 39 14 21 1011.4 1006.9 0.0
16/05:00pm 41.0 37.9 3.4 10 20.7 S 9 28 5 15 1011.4 1006.9 0.0
16/04:30pm 41.7 37.5 3.9 10 21.1 WSW 15 30 8 16 1011.4 1006.9 0.0
16/04:00pm 42.0 37.9 4.1 10 21.2 S 15 20 8 11 1011.4 1006.9 0.0
16/03:30pm 41.4 37.2 3.7 10 20.9 WNW 15 28 8 15 1011.6 1007.1 0.0
16/03:00pm 42.4 38.7 4.4 10 21.4 W 13 26 7 14 1011.9 1007.4 0.0
16/02:30pm 41.8 36.7 4.0 10 21.1 W 20 32 11 17 1012.2 1007.7 0.0
16/02:00pm 41.2 38.7 3.5 10 20.8 NW 6 11 3 6 1012.6 1008.2 0.0
16/01:30pm 40.9 37.7 3.3 10 20.7 NNW 9 20 5 11 1013.3 1008.8 0.0
16/01:00pm 41.5 38.8 3.7 10 21.0 NE 7 15 4 8 1013.7 1009.2 0.0
16/12:30pm 40.2 36.2 2.8 10 20.3 S 13 19 7 10 1014.2 1009.8 0.0
16/12:00pm 39.7 36.6 3.7 11 19.8 NW 9 15 5 8 1014.7 1010.3 0.0
16/11:30am 38.9 36.7 3.1 11 19.4 SSW 4 9 2 5 1015.3 1010.8 0.0
16/11:00am 39.4 36.7 3.5 11 19.6 SSE 7 17 4 9 1015.7 1011.3 0.0
16/10:30am 37.7 33.8 3.4 12 18.6 SSW 13 20 7 11 1016.0 1011.6 0.0
16/10:00am 37.8 34.1 2.3 11 18.9 E 11 22 6 12 1016.3 1011.9 0.0
16/09:30am 36.6 31.8 2.6 12 18.1 ESE 17 26 9 14 1016.5 1012.1 0.0
16/09:00am 35.5 31.1 2.9 13 17.3 SE 15 20 8 11 1016.6 1012.2 -
16/08:30am 33.7 28.5 3.5 15 16.0 SE 20 30 11 16 1016.6 1012.2 -
16/08:00am 32.4 26.8 3.4 16 15.3 SE 22 30 12 16 1016.5 1012.1 -
16/07:30am 30.9 26.7 3.8 18 14.2 SSE 15 24 8 13 1016.6 1012.2 -
16/07:00am 27.4 23.3 2.5 20 12.5 S 13 17 7 9 1016.3 1011.9 -
16/06:30am 25.3 21.6 2.1 22 11.4 SSW 11 15 6 8 1016.2 1011.8 -
16/06:00am 24.8 22.0 2.3 23 11.1 S 6 9 3 5 1015.9 1011.5 -
16/05:30am 25.0 22.0 1.8 22 11.3 SSE 7 9 4 5 1015.7 1011.3 -
16/05:00am 25.2 21.4 2.0 22 11.4 S 11 13 6 7 1015.3 1010.8 -
16/04:30am 25.5 21.8 2.2 22 11.5 SSW 11 13 6 7 1015.3 1010.8 -
16/04:00am 25.7 22.8 2.4 22 11.6 S 7 9 4 5 1015.3 1010.8 -
16/03:30am 26.8 23.2 2.7 21 12.1 SSW 11 13 6 7 1015.3 1010.8 -
16/03:00am 27.2 24.4 3.0 21 12.3 SSE 7 11 4 6 1015.3 1010.8 0.0
16/02:30am 28.0 25.2 3.0 20 12.7 SE 7 9 4 5 1015.5 1011.0 -
16/02:00am 28.9 24.9 3.0 19 13.3 S 13 15 7 8 1015.3 1010.8 -
16/01:30am 28.3 25.1 3.2 20 12.9 S 9 11 5 6 1015.5 1011.0 -
16/01:00am 29.0 25.8 3.1 19 13.3 S 9 11 5 6 1015.5 1011.0 -
16/12:30am 30.4 26.7 2.6 17 14.3 SE 11 19 6 10 1015.6 1011.2 -
16/12:00am 31.4 28.1 2.6 16 14.9 SSE 9 15 5 8 1015.6 1011.2 -
 
Date/Time
WST
Temp
°C
App
Temp
°C
Dew
Point
°C
Rel
Hum
%
Delta-T
°C
Wind Press
QNH
hPa
Press
MSL
hPa
Rain since
9am
mm
Dir  Spd
km/h
Gust
km/h
Spd
kts
Gust
kts
15/11:30pm 32.5 28.1 2.5 15 15.6 SSW 15 19 8 10 1015.5 1011.0 -
15/11:00pm 32.9 28.9 2.9 15 15.7 SSW 13 17 7 9 1015.5 1011.0 -
15/10:30pm 33.4 29.3 2.3 14 16.2 SSW 13 17 7 9 1015.6 1011.2 -
15/10:00pm 33.8 30.5 2.6 14 16.3 S 9 13 5 7 1015.7 1011.3 -
15/09:30pm 35.0 30.9 2.5 13 17.1 SSW 13 17 7 9 1015.7 1011.3 -
15/09:00pm 35.6 31.6 3.0 13 17.4 SSW 13 17 7 9 1015.6 1011.2 0.0
15/08:30pm 36.6 31.8 2.6 12 18.1 SSW 17 20 9 11 1015.5 1011.0 -
15/08:00pm 37.1 32.8 3.0 12 18.3 SSW 15 19 8 10 1015.0 1010.6 -
15/07:30pm 37.8 32.8 3.5 12 18.6 SSW 19 30 10 16 1014.6 1010.2 -
15/07:00pm 38.6 33.3 2.9 11 19.3 SW 20 30 11 16 1014.1 1009.7 -
15/06:30pm 39.3 32.6 3.4 11 19.6 SSW 28 37 15 20 1013.6 1009.1 -
15/06:00pm 40.4 35.1 2.9 10 20.5 SSW 20 33 11 18 1013.3 1008.8 -
15/05:30pm 40.8 36.9 3.2 10 20.6 WSW 13 35 7 19 1013.0 1008.6 -
15/05:00pm 40.9 35.5 4.6 11 20.4 WSW 22 33 12 18 1012.8 1008.4 -
15/04:30pm 41.3 37.3 4.9 11 20.5 WSW 15 30 8 16 1012.9 1008.5 -
15/04:00pm 40.4 37.4 4.3 11 20.1 WSW 9 22 5 12 1012.8 1008.4 -
15/03:30pm 41.9 36.3 5.4 11 20.8 SSW 24 35 13 19 1012.8 1008.4 -
15/03:18pm 41.5 35.8 5.1 11 20.6 SW 24 41 13 22 1012.7 1008.3 -
15/03:00pm 41.1 38.5 6.0 12 20.1 WSW 9 19 5 10 1013.0 1008.6 -
15/02:30pm 40.7 36.9 5.7 12 19.9 W 15 22 8 12 1013.3 1008.8 -
15/02:00pm 40.0 36.2 7.4 14 19.0 SSE 17 26 9 14 1013.6 1009.1 -
15/01:30pm 41.3 37.5 7.4 13 19.8 SW 17 26 9 14 1014.0 1009.6 -
15/01:00pm 40.6 - 7.9 14 19.2 - - - - - 1014.2 1009.8 -
15/12:30pm 39.9 36.4 7.4 14 18.9 SW 15 24 8 13 1014.6 1010.2 0.0
15/12:00pm 39.9 38.0 7.4 14 18.9 WNW 7 15 4 8 1014.9 1010.5 0.0
15/11:30am 39.7 37.3 7.2 14 18.8 S 9 20 5 11 1015.5 1011.0 0.0
15/11:00am 38.5 37.4 10.8 19 16.8 SW 7 13 4 7 1015.9 1011.5 0.0
15/10:30am 37.3 36.4 11.3 21 15.8 S 7 15 4 8 1016.3 1011.9 0.0
15/10:00am 36.2 35.2 12.4 24 14.6 WSW 9 17 5 9 1016.5 1012.1 0.0
15/09:30am 34.8 33.9 12.5 26 13.7 WSW 9 13 5 7 1016.6 1012.2 0.0
15/09:00am 33.9 32.3 12.8 28 12.9 SW 13 19 7 10 1016.7 1012.3 0.0
15/08:30am 31.9 31.3 14.5 34 10.9 WSW 11 17 6 9 1016.7 1012.3 0.0
15/08:00am 31.5 31.0 15.0 36 10.4 WNW 11 17 6 9 1016.6 1012.2 0.0
15/07:30am 29.3 29.9 15.4 42 8.7 NW 6 9 3 5 1016.4 1012.0 0.0
15/07:00am 27.9 29.5 15.9 48 7.5 NNW 2 4 1 2 1016.2 1011.8 0.0
15/06:30am 26.1 26.9 15.8 53 6.4 NE 6 7 3 4 1015.9 1011.5 0.0
15/06:00am 24.5 25.6 15.7 58 5.5 NNE 4 6 2 3 1015.5 1011.0 0.0
15/05:30am 24.7 25.1 15.3 56 5.8 NNE 7 7 4 4 1015.2 1010.7 0.0
15/05:00am 24.8 25.3 15.1 54 6.0 NE 6 6 3 3 1014.9 1010.5 0.0
15/04:30am 24.6 25.5 15.2 55 5.8 N 4 6 2 3 1014.7 1010.3 0.0
15/04:00am 25.1 26.0 15.1 53 6.2 N 4 6 2 3 1014.5 1010.1 0.0
15/03:30am 25.7 26.1 15.4 53 6.4 NNE 7 9 4 5 1014.4 1010.0 0.0
15/03:00am 26.1 26.5 15.2 51 6.7 NNE 7 11 4 6 1014.2 1009.8 0.0
15/02:30am 26.3 26.6 15.0 49 7.0 NNE 7 11 4 6 1014.0 1009.6 0.0
15/02:00am 26.4 26.7 14.5 48 7.3 N 6 7 3 4 1014.2 1009.8 0.0
15/01:30am 26.9 26.7 14.6 46 7.6 N 9 11 5 6 1014.2 1009.8 0.0
15/01:00am 27.2 27.5 14.6 46 7.8 N 6 9 3 5 1014.4 1010.0 0.0
15/12:30am 27.6 27.6 14.3 44 8.2 N 7 9 4 5 1014.5 1010.1 0.0
15/12:00am 28.2 28.2 14.1 42 8.6 N 7 11 4 6 1014.5 1010.1 0.0
 
Date/Time
WST
Temp
°C
App
Temp
°C
Dew
Point
°C
Rel
Hum
%
Delta-T
°C
Wind Press
QNH
hPa
Press
MSL
hPa
Rain since
9am
mm
Dir  Spd
km/h
Gust
km/h
Spd
kts
Gust
kts
14/11:30pm 28.7 28.3 14.1 40 9.0 NNE 9 11 5 6 1014.6 1010.2 0.0
14/11:00pm 29.2 28.7 13.8 39 9.4 N 9 13 5 7 1015.0 1010.6 0.0
14/10:30pm 29.7 28.9 13.9 38 9.7 NNE 11 17 6 9 1014.9 1010.5 0.0
14/10:00pm 29.9 28.8 14.4 38 9.6 NNE 13 20 7 11 1015.0 1010.6 0.0

Other Formats:

Comma delimited format used in spreadsheet applications
http://www.bom.gov.au/fwo/IDW60801/IDW60801.99400.axf

JavaScript Object Notation format (JSON) in row-major order
http://www.bom.gov.au/fwo/IDW60801/IDW60801.99400.json